WZZ1XS LHBP-LUKK
Flight info
| Callsign | WZZ1XS |
|---|---|
| Flight time | 1h 3m |
| Altitude | 37000 |
| Route | VETIK DCT BADOR DCT BUSES |
| Aircraft | A21N/M-SDE1E2E3FGIJ1J4RWXY/LB1 |
Departure
| Time | 2026-05-09 13:34 |
|---|---|
| Airport | Budapest Liszt Ferenc International Airport (LHBP) |
Arrival
| Time | 2026-05-09 14:37 |
|---|---|
| Airport | Chişinău International Airport (LUKK) |
| Time | Latitude | Longitude | Altitude | Speed | Heading |
|---|---|---|---|---|---|
| 2026-05-09 13:08 | 47.43290 | 19.25717 | 490 ft | 0 kts | 43° |
| 2026-05-09 13:27 | 47.43274 | 19.25696 | 459 ft | 4 kts | 43° |
| 2026-05-09 13:27 | 47.43254 | 19.25669 | 460 ft | 4 kts | 43° |
| 2026-05-09 13:27 | 47.43237 | 19.25646 | 458 ft | 4 kts | 31° |
| 2026-05-09 13:27 | 47.43214 | 19.25636 | 462 ft | 4 kts | 345° |
| 2026-05-09 13:28 | 47.43195 | 19.25657 | 462 ft | 5 kts | 302° |
| 2026-05-09 13:28 | 47.43182 | 19.25691 | 462 ft | 5 kts | 306° |
| 2026-05-09 13:28 | 47.43177 | 19.25700 | 461 ft | 1 kts | 312° |
| 2026-05-09 13:30 | 47.43183 | 19.25690 | 463 ft | 3 kts | 312° |
| 2026-05-09 13:30 | 47.43201 | 19.25661 | 460 ft | 5 kts | 312° |
| 2026-05-09 13:31 | 47.43231 | 19.25614 | 459 ft | 7 kts | 312° |
| 2026-05-09 13:31 | 47.43271 | 19.25549 | 463 ft | 10 kts | 312° |
| 2026-05-09 13:31 | 47.43323 | 19.25465 | 463 ft | 12 kts | 312° |
| 2026-05-09 13:31 | 47.43337 | 19.25382 | 463 ft | 10 kts | 237° |
| 2026-05-09 13:32 | 47.43281 | 19.25303 | 463 ft | 12 kts | 221° |
| 2026-05-09 13:32 | 47.43130 | 19.25100 | 463 ft | 17 kts | 222° |
| 2026-05-09 13:32 | 47.43076 | 19.25027 | 462 ft | 5 kts | 226° |
| 2026-05-09 13:33 | 47.43079 | 19.24974 | 463 ft | 7 kts | 310° |
| 2026-05-09 13:33 | 47.43123 | 19.24902 | 462 ft | 20 kts | 313° |
| 2026-05-09 13:33 | 47.43413 | 19.24438 | 458 ft | 101 kts | 312° |
| 2026-05-09 13:33 | 47.44032 | 19.23438 | 461 ft | 159 kts | 312° |
| 2026-05-09 13:34 | 47.44775 | 19.22257 | 1109 ft | 152 kts | 310° |
| 2026-05-09 13:34 | 47.45479 | 19.21082 | 1899 ft | 154 kts | 311° |
| 2026-05-09 13:34 | 47.46233 | 19.19849 | 2564 ft | 176 kts | 313° |
| 2026-05-09 13:34 | 47.47126 | 19.18398 | 3137 ft | 206 kts | 311° |
| 2026-05-09 13:35 | 47.48147 | 19.16739 | 3760 ft | 230 kts | 313° |
| 2026-05-09 13:35 | 47.49448 | 19.15254 | 4404 ft | 251 kts | 336° |
| 2026-05-09 13:35 | 47.51193 | 19.14873 | 5280 ft | 262 kts | 6° |
| 2026-05-09 13:35 | 47.52886 | 19.15931 | 6270 ft | 272 kts | 37° |
| 2026-05-09 13:36 | 47.54008 | 19.18192 | 7243 ft | 280 kts | 68° |
| 2026-05-09 13:36 | 47.54225 | 19.21061 | 8177 ft | 287 kts | 98° |
| 2026-05-09 13:36 | 47.53681 | 19.23925 | 9134 ft | 293 kts | 108° |
| 2026-05-09 13:36 | 47.53041 | 19.26817 | 10057 ft | 299 kts | 107° |
| 2026-05-09 13:37 | 47.52422 | 19.29815 | 10751 ft | 312 kts | 106° |
| 2026-05-09 13:37 | 47.51811 | 19.32970 | 11381 ft | 326 kts | 105° |
| 2026-05-09 13:37 | 47.51197 | 19.36256 | 12095 ft | 336 kts | 105° |
| 2026-05-09 13:37 | 47.50584 | 19.39620 | 12954 ft | 341 kts | 105° |
| 2026-05-09 13:38 | 47.49967 | 19.43038 | 13843 ft | 346 kts | 105° |
| 2026-05-09 13:38 | 47.49342 | 19.46501 | 14651 ft | 350 kts | 105° |
| 2026-05-09 13:38 | 47.48713 | 19.50000 | 15475 ft | 354 kts | 105° |
| 2026-05-09 13:38 | 47.48077 | 19.53532 | 16312 ft | 358 kts | 105° |
| 2026-05-09 13:39 | 47.47432 | 19.57108 | 17135 ft | 362 kts | 105° |
| 2026-05-09 13:39 | 47.46779 | 19.60717 | 17946 ft | 366 kts | 105° |
| 2026-05-09 13:39 | 47.46118 | 19.64371 | 18696 ft | 370 kts | 105° |
| 2026-05-09 13:39 | 47.45437 | 19.68117 | 19367 ft | 375 kts | 105° |
| 2026-05-09 13:40 | 47.44756 | 19.71858 | 20023 ft | 379 kts | 106° |
| 2026-05-09 13:40 | 47.44076 | 19.75588 | 20671 ft | 384 kts | 106° |
| 2026-05-09 13:40 | 47.43377 | 19.79421 | 21326 ft | 388 kts | 106° |
| 2026-05-09 13:40 | 47.42668 | 19.83295 | 21962 ft | 393 kts | 107° |
| 2026-05-09 13:41 | 47.41948 | 19.87216 | 22589 ft | 398 kts | 107° |
| 2026-05-09 13:41 | 47.41221 | 19.91178 | 23222 ft | 402 kts | 107° |
| 2026-05-09 13:41 | 47.40484 | 19.95189 | 23797 ft | 407 kts | 107° |
| 2026-05-09 13:41 | 47.39736 | 19.99241 | 24301 ft | 411 kts | 107° |
| 2026-05-09 13:42 | 47.38977 | 20.03337 | 24791 ft | 416 kts | 107° |
| 2026-05-09 13:42 | 47.38210 | 20.07471 | 25276 ft | 420 kts | 107° |
| 2026-05-09 13:42 | 47.37432 | 20.11649 | 25748 ft | 425 kts | 107° |
| 2026-05-09 13:42 | 47.36643 | 20.15875 | 26214 ft | 429 kts | 107° |
| 2026-05-09 13:43 | 47.35911 | 20.20167 | 26667 ft | 435 kts | 102° |
| 2026-05-09 13:43 | 47.35625 | 20.24624 | 27108 ft | 440 kts | 90° |
| 2026-05-09 13:43 | 47.35937 | 20.29134 | 27553 ft | 444 kts | 79° |
| 2026-05-09 13:43 | 47.36512 | 20.33632 | 27993 ft | 448 kts | 78° |
| 2026-05-09 13:44 | 47.37114 | 20.38153 | 28447 ft | 451 kts | 78° |
| 2026-05-09 13:44 | 47.37709 | 20.42718 | 28892 ft | 454 kts | 78° |
| 2026-05-09 13:44 | 47.38293 | 20.47315 | 29325 ft | 458 kts | 78° |
| 2026-05-09 13:44 | 47.38870 | 20.51951 | 29734 ft | 461 kts | 78° |
| 2026-05-09 13:45 | 47.39441 | 20.56613 | 30127 ft | 464 kts | 78° |
| 2026-05-09 13:45 | 47.40019 | 20.61328 | 30474 ft | 467 kts | 78° |
| 2026-05-09 13:45 | 47.40588 | 20.66063 | 30828 ft | 469 kts | 79° |
| 2026-05-09 13:45 | 47.41161 | 20.70815 | 31187 ft | 472 kts | 78° |
| 2026-05-09 13:46 | 47.41737 | 20.75601 | 31506 ft | 475 kts | 79° |
| 2026-05-09 13:46 | 47.42317 | 20.80410 | 31857 ft | 476 kts | 79° |
| 2026-05-09 13:46 | 47.42900 | 20.85213 | 32297 ft | 475 kts | 79° |
| 2026-05-09 13:46 | 47.43488 | 20.90012 | 32741 ft | 474 kts | 79° |
| 2026-05-09 13:47 | 47.44062 | 20.94801 | 33170 ft | 473 kts | 79° |
| 2026-05-09 13:47 | 47.44625 | 20.99583 | 33599 ft | 472 kts | 79° |
| 2026-05-09 13:47 | 47.45194 | 21.04349 | 34000 ft | 471 kts | 79° |
| 2026-05-09 13:47 | 47.45766 | 21.09109 | 34334 ft | 470 kts | 79° |
| 2026-05-09 13:48 | 47.46325 | 21.13868 | 34657 ft | 470 kts | 79° |
| 2026-05-09 13:48 | 47.46882 | 21.18630 | 34955 ft | 470 kts | 79° |
| 2026-05-09 13:48 | 47.47439 | 21.23379 | 35256 ft | 469 kts | 80° |
| 2026-05-09 13:48 | 47.47986 | 21.28073 | 35544 ft | 469 kts | 80° |
| 2026-05-09 13:49 | 47.48538 | 21.32816 | 35835 ft | 468 kts | 79° |
| 2026-05-09 13:49 | 47.49093 | 21.37549 | 36169 ft | 466 kts | 79° |
| 2026-05-09 13:49 | 47.49641 | 21.42264 | 36458 ft | 466 kts | 80° |
| 2026-05-09 13:49 | 47.50188 | 21.46992 | 36695 ft | 466 kts | 80° |
| 2026-05-09 13:50 | 47.50731 | 21.51723 | 36939 ft | 466 kts | 80° |
| 2026-05-09 13:50 | 47.51268 | 21.56432 | 37084 ft | 465 kts | 80° |
| 2026-05-09 13:50 | 47.52352 | 21.65842 | 37068 ft | 464 kts | 80° |
| 2026-05-09 13:51 | 47.53423 | 21.75247 | 37055 ft | 464 kts | 80° |
| 2026-05-09 13:51 | 47.54475 | 21.84653 | 37044 ft | 463 kts | 80° |
| 2026-05-09 13:52 | 47.55526 | 21.94142 | 37056 ft | 472 kts | 81° |
| 2026-05-09 13:52 | 47.56593 | 22.03862 | 37056 ft | 484 kts | 80° |
| 2026-05-09 13:53 | 47.57138 | 22.13878 | 37054 ft | 493 kts | 96° |
| 2026-05-09 13:53 | 47.56298 | 22.24034 | 37045 ft | 499 kts | 98° |
| 2026-05-09 13:54 | 47.55418 | 22.34191 | 37032 ft | 497 kts | 98° |
| 2026-05-09 13:54 | 47.54586 | 22.44333 | 37037 ft | 496 kts | 98° |
| 2026-05-09 13:55 | 47.53886 | 22.52755 | 37039 ft | 496 kts | 98° |
| 2026-05-09 13:55 | 47.53741 | 22.54464 | 37039 ft | 496 kts | 98° |
| 2026-05-09 13:56 | 47.53725 | 22.54652 | 37039 ft | 496 kts | 98° |
| 2026-05-09 13:56 | 47.52900 | 22.64354 | 37041 ft | 496 kts | 98° |
| 2026-05-09 13:57 | 47.52028 | 22.74474 | 37041 ft | 494 kts | 98° |
| 2026-05-09 13:57 | 47.51154 | 22.84551 | 37046 ft | 494 kts | 98° |
| 2026-05-09 13:58 | 47.50270 | 22.94609 | 37045 ft | 494 kts | 98° |
| 2026-05-09 13:58 | 47.49348 | 23.04672 | 37043 ft | 494 kts | 99° |
| 2026-05-09 13:59 | 47.48398 | 23.14748 | 37032 ft | 494 kts | 99° |
| 2026-05-09 13:59 | 47.47541 | 23.24776 | 37032 ft | 491 kts | 98° |
| 2026-05-09 14:00 | 47.46803 | 23.33106 | 37033 ft | 493 kts | 99° |
| 2026-05-09 14:00 | 47.45723 | 23.44806 | 37027 ft | 491 kts | 99° |
| 2026-05-09 14:01 | 47.44786 | 23.54808 | 37011 ft | 491 kts | 99° |
| 2026-05-09 14:01 | 47.43846 | 23.64775 | 37026 ft | 489 kts | 99° |
| 2026-05-09 14:02 | 47.42901 | 23.74721 | 37029 ft | 490 kts | 99° |
| 2026-05-09 14:02 | 47.41944 | 23.84689 | 37029 ft | 489 kts | 99° |
| 2026-05-09 14:03 | 47.40980 | 23.94618 | 37043 ft | 489 kts | 99° |
| 2026-05-09 14:03 | 47.40016 | 24.04470 | 37032 ft | 488 kts | 100° |
| 2026-05-09 14:04 | 47.39039 | 24.14369 | 37031 ft | 487 kts | 100° |
| 2026-05-09 14:04 | 47.38054 | 24.24256 | 37032 ft | 487 kts | 100° |
| 2026-05-09 14:05 | 47.37061 | 24.34140 | 37039 ft | 488 kts | 100° |
| 2026-05-09 14:05 | 47.36058 | 24.44023 | 37043 ft | 485 kts | 101° |
| 2026-05-09 14:06 | 47.34807 | 24.53776 | 37049 ft | 484 kts | 103° |
| 2026-05-09 14:06 | 47.33668 | 24.63586 | 37053 ft | 485 kts | 101° |
| 2026-05-09 14:07 | 47.32644 | 24.73402 | 37071 ft | 485 kts | 101° |
| 2026-05-09 14:07 | 47.31715 | 24.83235 | 37057 ft | 485 kts | 98° |
| 2026-05-09 14:08 | 47.30931 | 24.93083 | 37063 ft | 483 kts | 100° |
| 2026-05-09 14:08 | 47.29932 | 25.02858 | 37056 ft | 482 kts | 101° |
| 2026-05-09 14:09 | 47.28878 | 25.12612 | 37063 ft | 482 kts | 101° |
| 2026-05-09 14:09 | 47.27823 | 25.22355 | 37078 ft | 482 kts | 101° |
| 2026-05-09 14:10 | 47.26214 | 25.36899 | 37076 ft | 482 kts | 101° |
| 2026-05-09 14:11 | 47.25128 | 25.46624 | 37081 ft | 482 kts | 101° |
| 2026-05-09 14:11 | 47.24383 | 25.56443 | 37071 ft | 483 kts | 100° |
| 2026-05-09 14:12 | 47.23080 | 25.66100 | 37079 ft | 479 kts | 104° |
| 2026-05-09 14:12 | 47.21867 | 25.75763 | 37086 ft | 481 kts | 102° |
| 2026-05-09 14:13 | 47.20770 | 25.85346 | 36618 ft | 466 kts | 102° |
| 2026-05-09 14:14 | 47.17014 | 26.17701 | 34776 ft | 456 kts | 103° |
| 2026-05-09 14:15 | 47.16472 | 26.22298 | 34532 ft | 456 kts | 103° |
| 2026-05-09 14:15 | 47.15930 | 26.26884 | 34290 ft | 456 kts | 103° |
| 2026-05-09 14:15 | 47.15385 | 26.31470 | 34050 ft | 455 kts | 103° |
| 2026-05-09 14:15 | 47.14840 | 26.36043 | 33713 ft | 455 kts | 103° |
| 2026-05-09 14:16 | 47.14294 | 26.40612 | 33006 ft | 453 kts | 103° |
| 2026-05-09 14:16 | 47.13748 | 26.45159 | 32224 ft | 452 kts | 103° |
| 2026-05-09 14:16 | 47.13201 | 26.49703 | 31498 ft | 451 kts | 103° |
| 2026-05-09 14:16 | 47.12654 | 26.54237 | 30818 ft | 449 kts | 102° |
| 2026-05-09 14:17 | 47.12107 | 26.58743 | 30162 ft | 447 kts | 102° |
| 2026-05-09 14:17 | 47.11563 | 26.63220 | 29395 ft | 444 kts | 102° |
| 2026-05-09 14:17 | 47.11175 | 26.67709 | 28640 ft | 443 kts | 97° |
| 2026-05-09 14:17 | 47.10820 | 26.72165 | 27986 ft | 436 kts | 102° |
| 2026-05-09 14:18 | 47.10214 | 26.76497 | 27317 ft | 431 kts | 104° |
| 2026-05-09 14:18 | 47.09621 | 26.80803 | 26608 ft | 430 kts | 103° |
| 2026-05-09 14:18 | 47.09064 | 26.85100 | 25904 ft | 428 kts | 102° |
| 2026-05-09 14:18 | 47.08525 | 26.89376 | 25267 ft | 425 kts | 102° |
| 2026-05-09 14:19 | 47.07947 | 26.93588 | 24701 ft | 419 kts | 103° |
| 2026-05-09 14:19 | 47.07358 | 26.97756 | 24093 ft | 416 kts | 103° |
| 2026-05-09 14:19 | 47.06799 | 27.01907 | 23450 ft | 414 kts | 102° |
| 2026-05-09 14:19 | 47.06264 | 27.06041 | 22748 ft | 411 kts | 102° |
| 2026-05-09 14:20 | 47.05742 | 27.10147 | 22067 ft | 408 kts | 102° |
| 2026-05-09 14:20 | 47.05224 | 27.14227 | 21403 ft | 405 kts | 102° |
| 2026-05-09 14:20 | 47.04712 | 27.18268 | 20776 ft | 402 kts | 102° |
| 2026-05-09 14:21 | 47.03333 | 27.26089 | 19610 ft | 393 kts | 108° |
| 2026-05-09 14:21 | 47.02845 | 27.30014 | 19076 ft | 390 kts | 99° |
| 2026-05-09 14:21 | 47.02512 | 27.33942 | 18579 ft | 387 kts | 99° |
| 2026-05-09 14:21 | 47.02121 | 27.37834 | 18044 ft | 385 kts | 101° |
| 2026-05-09 14:22 | 47.01676 | 27.41663 | 17502 ft | 377 kts | 102° |
| 2026-05-09 14:22 | 47.01214 | 27.45403 | 16971 ft | 369 kts | 102° |
| 2026-05-09 14:22 | 47.00754 | 27.49011 | 16489 ft | 361 kts | 102° |
| 2026-05-09 14:22 | 47.00284 | 27.52635 | 16001 ft | 354 kts | 102° |
| 2026-05-09 14:23 | 46.99828 | 27.56139 | 15531 ft | 349 kts | 102° |
| 2026-05-09 14:23 | 46.99371 | 27.59640 | 15083 ft | 349 kts | 103° |
| 2026-05-09 14:23 | 46.98913 | 27.63131 | 14613 ft | 350 kts | 103° |
| 2026-05-09 14:23 | 46.98453 | 27.66635 | 14130 ft | 351 kts | 103° |
| 2026-05-09 14:24 | 46.97990 | 27.70146 | 13622 ft | 352 kts | 102° |
| 2026-05-09 14:24 | 46.97526 | 27.73661 | 13120 ft | 351 kts | 102° |
| 2026-05-09 14:24 | 46.97063 | 27.77158 | 12655 ft | 346 kts | 102° |
| 2026-05-09 14:24 | 46.96609 | 27.80581 | 12165 ft | 340 kts | 102° |
| 2026-05-09 14:25 | 46.96169 | 27.83898 | 11681 ft | 333 kts | 102° |
| 2026-05-09 14:25 | 46.95732 | 27.87179 | 11228 ft | 325 kts | 102° |
| 2026-05-09 14:25 | 46.95303 | 27.90391 | 10839 ft | 316 kts | 102° |
| 2026-05-09 14:25 | 46.94889 | 27.93483 | 10606 ft | 303 kts | 102° |
| 2026-05-09 14:26 | 46.94492 | 27.96436 | 10433 ft | 289 kts | 102° |
| 2026-05-09 14:26 | 46.94111 | 27.99270 | 10186 ft | 281 kts | 102° |
| 2026-05-09 14:26 | 46.93737 | 28.02045 | 9820 ft | 276 kts | 102° |
| 2026-05-09 14:26 | 46.93365 | 28.04796 | 9399 ft | 276 kts | 102° |
| 2026-05-09 14:27 | 46.92991 | 28.07553 | 8995 ft | 277 kts | 102° |
| 2026-05-09 14:27 | 46.92637 | 28.10322 | 8607 ft | 278 kts | 98° |
| 2026-05-09 14:27 | 46.92529 | 28.13143 | 8246 ft | 278 kts | 92° |
| 2026-05-09 14:27 | 46.92512 | 28.15960 | 7920 ft | 277 kts | 92° |
| 2026-05-09 14:28 | 46.92497 | 28.18766 | 7583 ft | 274 kts | 91° |
| 2026-05-09 14:28 | 46.92480 | 28.21540 | 7206 ft | 273 kts | 91° |
| 2026-05-09 14:28 | 46.92460 | 28.24297 | 6864 ft | 270 kts | 91° |
| 2026-05-09 14:28 | 46.92438 | 28.27026 | 6488 ft | 266 kts | 91° |
| 2026-05-09 14:29 | 46.92415 | 28.29727 | 6091 ft | 266 kts | 91° |
| 2026-05-09 14:29 | 46.92393 | 28.32433 | 5730 ft | 265 kts | 91° |
| 2026-05-09 14:29 | 46.92371 | 28.35113 | 5398 ft | 261 kts | 91° |
| 2026-05-09 14:29 | 46.92345 | 28.37750 | 5043 ft | 259 kts | 91° |
| 2026-05-09 14:30 | 46.92329 | 28.39493 | 4798 ft | 258 kts | 91° |
| 2026-05-09 14:30 | 46.92295 | 28.42973 | 4256 ft | 255 kts | 91° |
| 2026-05-09 14:30 | 46.92270 | 28.45564 | 3874 ft | 254 kts | 91° |
| 2026-05-09 14:30 | 46.92243 | 28.48159 | 3563 ft | 256 kts | 92° |
| 2026-05-09 14:31 | 46.92221 | 28.50689 | 3462 ft | 241 kts | 91° |
| 2026-05-09 14:31 | 46.92200 | 28.53057 | 3457 ft | 224 kts | 92° |
| 2026-05-09 14:31 | 46.92179 | 28.55248 | 3462 ft | 207 kts | 93° |
| 2026-05-09 14:31 | 46.92156 | 28.57370 | 3467 ft | 209 kts | 93° |
| 2026-05-09 14:32 | 46.92134 | 28.59490 | 3478 ft | 209 kts | 93° |
| 2026-05-09 14:32 | 46.92106 | 28.61620 | 3485 ft | 208 kts | 92° |
| 2026-05-09 14:32 | 46.92137 | 28.63742 | 3467 ft | 208 kts | 88° |
| 2026-05-09 14:32 | 46.92216 | 28.65845 | 3379 ft | 208 kts | 90° |
| 2026-05-09 14:33 | 46.92265 | 28.67967 | 3265 ft | 209 kts | 90° |
| 2026-05-09 14:33 | 46.92310 | 28.70067 | 3108 ft | 209 kts | 91° |
| 2026-05-09 14:33 | 46.92353 | 28.72167 | 2882 ft | 204 kts | 91° |
| 2026-05-09 14:33 | 46.92395 | 28.74203 | 2627 ft | 196 kts | 91° |
| 2026-05-09 14:34 | 46.92434 | 28.76157 | 2373 ft | 188 kts | 91° |
| 2026-05-09 14:34 | 46.92472 | 28.77988 | 2225 ft | 170 kts | 91° |
| 2026-05-09 14:34 | 46.92506 | 28.79636 | 2003 ft | 151 kts | 92° |
| 2026-05-09 14:34 | 46.92534 | 28.81035 | 1760 ft | 129 kts | 93° |
| 2026-05-09 14:35 | 46.92555 | 28.82352 | 1546 ft | 129 kts | 91° |
| 2026-05-09 14:35 | 46.92588 | 28.83656 | 1385 ft | 127 kts | 93° |
| 2026-05-09 14:35 | 46.92608 | 28.84952 | 1258 ft | 128 kts | 91° |
| 2026-05-09 14:35 | 46.92639 | 28.86257 | 1074 ft | 128 kts | 91° |
| 2026-05-09 14:36 | 46.92669 | 28.87573 | 887 ft | 130 kts | 92° |
| 2026-05-09 14:36 | 46.92698 | 28.88904 | 714 ft | 132 kts | 91° |
| 2026-05-09 14:36 | 46.92724 | 28.90242 | 523 ft | 132 kts | 91° |
| 2026-05-09 14:36 | 46.92753 | 28.91574 | 415 ft | 124 kts | 92° |
| 2026-05-09 14:37 | 46.92766 | 28.92500 | 412 ft | 63 kts | 88° |
| 2026-05-09 14:37 | 46.92779 | 28.93047 | 414 ft | 29 kts | 90° |
| 2026-05-09 14:37 | 46.92782 | 28.93286 | 413 ft | 19 kts | 88° |
| 2026-05-09 14:37 | 46.92788 | 28.93391 | 414 ft | 10 kts | 67° |
| 2026-05-09 14:38 | 46.92861 | 28.93421 | 414 ft | 13 kts | 360° |
| 2026-05-09 14:38 | 46.92947 | 28.93414 | 414 ft | 11 kts | 358° |
| 2026-05-09 14:38 | 46.93032 | 28.93420 | 414 ft | 13 kts | 9° |
| 2026-05-09 14:38 | 46.93116 | 28.93439 | 416 ft | 14 kts | 7° |
| 2026-05-09 14:39 | 46.93221 | 28.93456 | 414 ft | 16 kts | 7° |
| 2026-05-09 14:39 | 46.93308 | 28.93472 | 414 ft | 7 kts | 12° |
| 2026-05-09 14:39 | 46.93326 | 28.93544 | 414 ft | 5 kts | 96° |
| 2026-05-09 14:39 | 46.93329 | 28.93584 | 411 ft | 4 kts | 50° |
| 2026-05-09 14:40 | 46.93355 | 28.93599 | 413 ft | 3 kts | 9° |
| 2026-05-09 14:40 | 46.93366 | 28.93601 | 413 ft | 1 kts | 8° |
| 2026-05-09 14:40 | 46.93372 | 28.93602 | 413 ft | 0 kts | 7° |